Time;durP1;ratioP1;P1;durP2;ratioP2;P2;SDS_P1;SDS_P2;PMS_P1;PMS_P2;Temp;Humidity;BMP_temperature;BMP_pressure;BME280_temperature;BME280_humidity;BME280_pressure;Samples;Min_cycle;Max_cycle;Signal;HPM_P1;HPM_P2
2023/11/27 08:01:54;;;;;;;;;3.00;3.00;;;;;20.50;42.80;100093.81;5706832;23;45317;-73
2023/11/27 08:04:19;;;;;;;;;1.00;1.00;;;;;20.58;42.52;100100.78;4970839;28;46173;-73
2023/11/27 08:06:44;;;;;;;;;2.00;2.00;;;;;20.54;42.82;100097.69;4961917;28;45425;-72
2023/11/27 08:09:11;;;;;;;;;5.67;2.00;;;;;20.49;42.88;100085.06;4960254;28;48987;-75
2023/11/27 08:11:36;;;;;;;;;2.67;2.00;;;;;20.45;42.89;100075.88;4958547;28;45452;-76
2023/11/27 08:14:02;;;;;;;;;3.33;2.33;;;;;20.57;42.57;100097.34;4959719;28;45395;-72
2023/11/27 08:16:27;;;;;;;;;3.00;2.67;;;;;20.51;42.73;100087.50;4957245;28;45381;-76
2023/11/27 08:18:53;;;;;;;;;2.00;1.00;;;;;20.56;43.01;100090.41;4971573;28;45282;-75
2023/11/27 08:21:18;;;;;;;;;3.00;3.00;;;;;20.53;42.89;100074.94;4972651;28;45555;-73
2023/11/27 08:23:44;;;;;;;;;1.33;1.33;;;;;20.52;43.04;100068.00;4956913;28;46589;-74
2023/11/27 08:26:09;;;;;;;;;3.33;2.67;;;;;20.50;42.70;100070.84;4957162;28;45302;-73
2023/11/27 08:28:35;;;;;;;;;2.00;2.00;;;;;20.55;42.96;100074.75;4957291;28;45330;-75
2023/11/27 08:31:00;;;;;;;;;1.00;1.00;;;;;20.44;42.78;100050.44;4971409;28;45565;-74
2023/11/27 08:33:26;;;;;;;;;4.33;3.00;;;;;20.58;42.72;100058.50;4976222;28;45409;-74
2023/11/27 08:35:52;;;;;;;;;2.00;2.00;;;;;20.43;42.79;100019.75;4976346;28;45461;-73
2023/11/27 08:38:18;;;;;;;;;3.00;3.00;;;;;20.56;42.85;100042.81;4972773;28;45341;-75
2023/11/27 08:40:43;;;;;;;;;3.00;3.00;;;;;20.55;42.63;100051.78;4976452;28;45425;-74
2023/11/27 08:43:09;;;;;;;;;2.33;1.67;;;;;20.56;42.83;100049.94;4975681;28;61557;-75
2023/11/27 08:45:34;;;;;;;;;3.00;1.00;;;;;20.57;42.89;100056.88;4976934;28;45357;-74
2023/11/27 08:48:00;;;;;;;;;2.00;2.00;;;;;20.56;42.62;100061.31;4976563;28;45337;-74
2023/11/27 08:50:34;;;;;;;;;1.00;1.00;;;;;20.46;42.55;100040.50;4976547;28;45410;-74
2023/11/27 08:52:59;;;;;;;;;2.67;2.67;;;;;20.48;42.87;100049.06;4976164;28;46348;-74
2023/11/27 08:55:29;;;;;;;;;2.00;2.00;;;;;20.58;42.92;100056.66;4976221;28;45365;-74
2023/11/27 08:57:57;;;;;;;;;1.67;1.67;;;;;20.56;42.79;100053.41;4977578;28;45349;-74
2023/11/27 09:00:26;;;;;;;;;3.00;3.00;;;;;20.57;42.69;100052.41;4975974;28;45365;-74
2023/11/27 09:02:52;;;;;;;;;2.33;2.33;;;;;20.49;42.68;100040.13;4975553;28;45354;-74
2023/11/27 09:05:17;;;;;;;;;2.00;2.00;;;;;20.59;42.92;100046.91;4974030;28;55318;-74
2023/11/27 09:07:43;;;;;;;;;2.00;2.00;;;;;20.56;42.95;100047.28;4976143;28;45231;-75
2023/11/27 09:10:09;;;;;;;;;2.00;2.00;;;;;20.58;42.47;100038.16;4976349;28;45708;-74
2023/11/27 09:12:34;;;;;;;;;2.00;2.00;;;;;20.59;42.92;100036.34;4975521;28;46246;-74
2023/11/27 09:15:00;;;;;;;;;2.00;2.00;;;;;20.57;42.89;100031.25;4975993;28;45247;-75
2023/11/27 09:17:25;;;;;;;;;2.00;2.00;;;;;20.51;42.91;100013.50;4979221;28;45351;-74
2023/11/27 09:19:51;;;;;;;;;3.00;2.00;;;;;20.53;42.55;100013.34;4979353;28;45313;-72
2023/11/27 09:22:21;;;;;;;;;2.33;2.00;;;;;20.58;42.72;100016.22;4979239;28;45875;-73
2023/11/27 09:24:46;;;;;;;;;2.00;2.00;;;;;20.44;42.97;100000.25;4979413;28;45425;-74
2023/11/27 09:27:11;;;;;;;;;2.00;2.00;;;;;20.57;42.67;100011.94;4979218;28;45461;-74
2023/11/27 09:29:37;;;;;;;;;3.33;2.00;;;;;20.57;42.85;100011.94;4979470;28;45386;-74
2023/11/27 09:32:04;;;;;;;;;2.00;2.00;;;;;20.33;42.69;99963.75;4978198;28;61723;-73
2023/11/27 09:34:30;;;;;;;;;3.67;3.00;;;;;20.55;42.71;100001.56;4979237;28;45561;-74
2023/11/27 09:36:55;;;;;;;;;2.00;2.00;;;;;20.56;42.79;100003.19;4979317;28;45397;-74
2023/11/27 09:39:21;;;;;;;;;3.00;3.00;;;;;20.57;43.17;100007.47;4966924;28;45322;-74
2023/11/27 09:41:46;;;;;;;;;3.00;2.00;;;;;20.53;42.81;99995.66;4959500;28;45419;-74
2023/11/27 09:44:13;;;;;;;;;2.00;2.00;;;;;20.56;42.57;99992.63;4959712;28;45451;-74
2023/11/27 09:46:42;;;;;;;;;2.00;2.00;;;;;20.57;42.93;99993.44;4959134;28;45612;-75
2023/11/27 09:49:10;;;;;;;;;2.67;2.00;;;;;20.54;43.09;99999.91;4965118;28;45464;-73
2023/11/27 09:51:38;;;;;;;;;2.00;1.00;;;;;20.55;42.77;99990.19;4978691;28;45427;-74
2023/11/27 09:54:04;;;;;;;;;2.33;1.67;;;;;20.49;42.89;99974.06;4978897;28;45418;-75
2023/11/27 09:56:32;;;;;;;;;4.00;2.00;;;;;20.56;42.77;99979.41;4978866;28;45324;-75
2023/11/27 09:59:01;;;;;;;;;2.67;1.00;;;;;20.56;42.92;99973.28;4978767;28;45282;-74
2023/11/27 10:01:28;;;;;;;;;2.67;2.67;;;;;20.50;43.06;99972.25;4978112;28;46169;-74
2023/11/27 10:04:01;;;;;;;;;1.33;1.33;;;;;20.56;42.71;99976.75;4978536;28;45332;-74
2023/11/27 10:06:32;;;;;;;;;1.00;1.00;;;;;20.56;43.12;99973.28;4974171;28;45397;-74
2023/11/27 10:09:07;;;;;;;;;2.00;2.00;;;;;20.57;42.83;99973.13;4978890;28;45281;-75
2023/11/27 10:11:34;;;;;;;;;2.00;2.00;;;;;20.57;42.96;99970.47;4978409;28;46065;-74
2023/11/27 10:14:06;;;;;;;;;3.67;2.00;;;;;20.51;42.76;99964.13;4978533;28;45274;-74
2023/11/27 10:16:32;;;;;;;;;1.00;1.00;;;;;20.45;43.05;99954.34;4978329;28;45585;-74
2023/11/27 10:19:06;;;;;;;;;4.00;2.67;;;;;20.57;42.81;99964.38;4978233;28;45437;-74
2023/11/27 10:21:33;;;;;;;;;2.00;2.00;;;;;20.57;42.72;99972.28;4978137;28;47226;-72
2023/11/27 10:24:02;;;;;;;;;1.00;1.00;;;;;20.54;43.10;99949.72;4978337;28;45209;-75
2023/11/27 10:26:30;;;;;;;;;2.67;2.67;;;;;20.56;42.94;99942.41;4977830;28;45440;-75
2023/11/27 10:28:57;;;;;;;;;3.00;3.00;;;;;20.57;42.92;99945.88;4978161;28;45789;-74
2023/11/27 10:31:23;;;;;;;;;1.00;1.00;;;;;20.56;42.97;99937.13;4978035;28;46670;-74
2023/11/27 10:33:49;;;;;;;;;1.67;1.67;;;;;20.54;42.87;99936.50;4977999;28;45418;-75
2023/11/27 10:36:17;;;;;;;;;1.67;1.67;;;;;20.51;42.85;99921.03;4978281;28;45337;-75
2023/11/27 10:38:43;;;;;;;;;2.00;2.00;;;;;20.48;42.81;99903.72;4978030;28;45699;-74
2023/11/27 10:41:09;;;;;;;;;2.00;1.33;;;;;20.55;43.11;99914.34;4977849;28;47006;-73
2023/11/27 10:43:36;;;;;;;;;2.33;1.33;;;;;20.57;43.04;99909.69;4977759;28;45393;-74
2023/11/27 10:46:03;;;;;;;;;3.00;3.00;;;;;20.56;43.08;99908.03;4978161;28;45348;-74
2023/11/27 10:48:29;;;;;;;;;2.00;1.67;;;;;20.50;42.77;99892.97;4976769;28;45293;-74
2023/11/27 10:50:57;;;;;;;;;2.00;2.00;;;;;20.56;43.03;99886.09;4977827;28;45324;-70
2023/11/27 10:53:23;;;;;;;;;2.00;2.00;;;;;20.56;43.08;99880.78;4978193;28;45313;-68
2023/11/27 10:55:51;;;;;;;;;1.00;1.00;;;;;20.56;43.20;99878.97;4978172;28;45387;-69
2023/11/27 10:58:18;;;;;;;;;3.00;3.00;;;;;20.54;43.24;99865.16;4977862;28;45376;-69
2023/11/27 11:00:56;;;;;;;;;2.00;2.00;;;;;20.48;42.95;99855.38;4978027;28;45448;-69
2023/11/27 11:03:23;;;;;;;;;2.67;2.67;;;;;20.56;43.29;99862.28;4977758;28;45510;-70
2023/11/27 11:05:51;;;;;;;;;1.67;1.67;;;;;20.55;42.79;99858.03;4977651;28;45357;-71
2023/11/27 11:08:22;;;;;;;;;1.67;1.67;;;;;20.53;43.22;99868.81;4976875;28;45508;-71
2023/11/27 11:10:47;;;;;;;;;3.00;2.00;;;;;20.48;43.06;99840.31;4978173;28;47130;-70
2023/11/27 11:13:17;;;;;;;;;2.00;2.00;;;;;20.55;43.24;99842.19;4985940;28;45489;-70
2023/11/27 11:15:56;;;;;;;;;1.33;1.33;;;;;20.56;43.10;99830.59;4983639;28;45337;-71
2023/11/27 11:18:34;;;;;;;;;1.00;1.00;;;;;20.57;43.71;99833.06;4985885;28;45460;-71
2023/11/27 11:21:36;;;;;;;;;1.33;1.33;;;;;20.57;43.50;99824.31;4986612;28;47005;-70
2023/11/27 11:24:23;;;;;;;;;1.00;1.00;;;;;20.57;43.13;99814.56;4987686;28;45457;-70
2023/11/27 11:27:16;;;;;;;;;1.00;1.00;;;;;20.60;43.25;99810.72;4980791;28;45338;-70
2023/11/27 11:29:44;;;;;;;;;3.33;2.00;;;;;20.53;43.52;99791.38;4985739;28;45439;-70
2023/11/27 11:32:16;;;;;;;;;2.00;2.00;;;;;20.59;44.12;99803.78;4986566;28;47054;-70
2023/11/27 11:34:43;;;;;;;;;1.00;1.00;;;;;20.60;43.87;99793.03;4977348;28;45404;-70
2023/11/27 11:37:11;;;;;;;;;1.00;1.00;;;;;20.60;43.61;99793.03;4977557;28;45372;-70
2023/11/27 11:39:40;;;;;;;;;1.00;1.00;;;;;20.62;44.27;99795.47;4976286;28;45608;-71
2023/11/27 11:42:13;;;;;;;;;1.00;1.00;;;;;20.63;43.54;99783.88;4983294;28;47140;-70
2023/11/27 11:44:41;;;;;;;;;2.00;2.00;;;;;20.63;43.84;99776.75;4984536;28;45413;-71
2023/11/27 11:47:42;;;;;;;;;3.00;2.67;;;;;20.63;43.82;99773.31;4971999;28;45457;-70
2023/11/27 11:50:24;;;;;;;;;2.33;2.00;;;;;20.62;43.92;99767.22;4948968;28;45346;-70
2023/11/27 11:52:55;;;;;;;;;1.00;1.00;;;;;20.61;44.32;99754.19;4944605;28;47231;-71
2023/11/27 11:55:31;;;;;;;;;2.67;2.00;;;;;20.55;44.04;99742.59;4943928;28;45559;-71
2023/11/27 11:58:02;;;;;;;;;2.33;2.33;;;;;20.63;44.38;99741.59;4943982;28;45470;-71
2023/11/27 12:00:42;;;;;;;;;2.00;1.00;;;;;20.62;44.15;99730.22;4946162;28;45514;-71
2023/11/27 12:03:08;;;;;;;;;3.00;2.00;;;;;20.51;44.10;99714.91;4946094;28;46216;-71
2023/11/27 12:05:33;;;;;;;;;3.00;1.00;;;;;20.61;44.16;99736.50;4948614;28;45500;-72
2023/11/27 12:08:00;;;;;;;;;2.33;1.67;;;;;20.63;43.91;99723.91;4945292;28;45477;-70
2023/11/27 12:10:30;;;;;;;;;3.33;2.00;;;;;20.65;44.01;99722.91;4944790;28;45402;-70
2023/11/27 12:12:57;;;;;;;;;1.00;1.00;;;;;20.66;44.25;99719.25;4945159;28;46253;-70
2023/11/27 12:15:24;;;;;;;;;3.00;1.00;;;;;20.35;43.84;99660.63;4945543;28;45476;-72
2023/11/27 12:17:50;;;;;;;;;2.00;2.00;;;;;20.66;44.00;99709.47;4945785;28;45423;-70
2023/11/27 12:20:21;;;;;;;;;2.00;2.00;;;;;20.66;44.09;99698.91;4946577;28;45620;-70
2023/11/27 12:22:48;;;;;;;;;1.00;1.00;;;;;20.62;44.09;99687.94;4944096;28;47404;-72
2023/11/27 12:25:18;;;;;;;;;2.00;2.00;;;;;20.66;44.16;99682.25;4965952;28;45351;-70
2023/11/27 12:27:44;;;;;;;;;1.00;1.00;;;;;20.68;44.17;99677.56;4966367;28;45243;-69
2023/11/27 12:30:10;;;;;;;;;2.00;2.00;;;;;20.69;44.43;99676.53;4965434;28;45491;-70
2023/11/27 12:32:36;;;;;;;;;1.00;1.00;;;;;20.68;44.60;99674.94;4967027;28;45480;-71
2023/11/27 12:35:10;;;;;;;;;2.00;2.00;;;;;20.35;44.35;99610.41;4965905;28;45456;-72
2023/11/27 12:37:35;;;;;;;;;1.00;1.00;;;;;20.70;43.94;99657.03;4967470;28;45413;-69
2023/11/27 12:40:02;;;;;;;;;1.00;1.00;;;;;20.69;44.12;99658.84;4961846;28;45429;-73
2023/11/27 12:42:28;;;;;;;;;1.00;1.00;;;;;20.71;44.13;99648.09;4956747;28;46086;-70
2023/11/27 12:44:55;;;;;;;;;2.00;2.00;;;;;20.71;44.22;99650.75;4956687;28;45391;-72
2023/11/27 12:47:21;;;;;;;;;1.00;1.00;;;;;20.71;44.06;99632.25;4956947;28;45337;-72
2023/11/27 12:49:51;;;;;;;;;2.33;1.33;;;;;20.70;44.23;99636.72;4956814;28;45418;-72
2023/11/27 12:52:17;;;;;;;;;1.00;1.00;;;;;20.69;44.27;99635.06;4956752;28;46082;-73
2023/11/27 12:54:42;;;;;;;;;5.00;1.67;;;;;20.65;44.14;99627.75;4956520;28;45351;-72
2023/11/27 12:57:10;;;;;;;;;3.00;1.67;;;;;20.69;44.36;99635.06;4966836;28;45363;-71
2023/11/27 12:59:46;;;;;;;;;5.33;1.00;;;;;20.62;44.19;99613.09;4976277;28;45402;-72
2023/11/27 13:02:16;;;;;;;;;1.00;1.00;;;;;20.65;43.98;99614.53;4975608;28;47081;-72
2023/11/27 13:04:41;;;;;;;;;2.00;2.00;;;;;20.28;44.11;99555.75;4975050;28;45298;-72
2023/11/27 13:07:12;;;;;;;;;2.67;0.00;;;;;20.67;44.32;99621.25;4956507;28;45342;-72
2023/11/27 13:09:38;;;;;;;;;2.33;2.33;;;;;20.67;44.01;99615.16;4956350;28;45450;-72
2023/11/27 13:12:18;;;;;;;;;2.00;1.00;;;;;20.57;44.58;99599.69;4956258;28;46822;-72
2023/11/27 13:14:49;;;;;;;;;1.00;1.00;;;;;20.66;44.35;99611.69;4956415;28;45458;-72
2023/11/27 13:17:18;;;;;;;;;1.00;1.00;;;;;20.61;44.04;99608.81;4956376;28;45353;-72
2023/11/27 13:19:48;;;;;;;;;2.33;1.00;;;;;20.66;44.07;99613.53;4956373;28;45468;-72
2023/11/27 13:22:15;;;;;;;;;1.33;1.33;;;;;20.56;44.45;99598.88;4956230;28;46941;-72
2023/11/27 13:24:45;;;;;;;;;1.67;1.67;;;;;20.66;44.20;99601.09;4955819;28;45270;-72
2023/11/27 13:27:16;;;;;;;;;1.00;1.00;;;;;20.65;44.00;99607.44;4956196;28;45350;-72
2023/11/27 13:29:50;;;;;;;;;2.00;2.00;;;;;20.66;44.50;99597.69;4973115;28;45251;-72
2023/11/27 13:32:16;;;;;;;;;2.00;2.00;;;;;20.65;44.06;99612.72;4975350;28;46050;-72
2023/11/27 13:34:55;;;;;;;;;3.00;1.00;;;;;20.64;44.29;99595.22;4975484;28;45301;-72
2023/11/27 13:37:25;;;;;;;;;1.00;1.00;;;;;20.66;44.10;99592.38;4975152;28;45285;-72
2023/11/27 13:40:01;;;;;;;;;3.00;1.33;;;;;20.65;44.48;99575.72;4975627;28;45465;-72
2023/11/27 13:42:30;;;;;;;;;2.00;2.00;;;;;20.65;44.33;99573.06;4975230;28;46223;-72
2023/11/27 13:44:55;;;;;;;;;2.00;2.00;;;;;20.57;44.41;99552.94;4975484;28;45281;-72
2023/11/27 13:47:20;;;;;;;;;1.67;1.67;;;;;20.65;44.30;99559.03;4975000;28;45332;-72
2023/11/27 13:49:48;;;;;;;;;1.33;1.33;;;;;20.64;44.45;99571.44;4975117;28;45401;-72
2023/11/27 13:52:17;;;;;;;;;4.00;2.00;;;;;20.63;44.25;99564.53;4975019;28;46051;-72
2023/11/27 13:54:42;;;;;;;;;2.33;2.00;;;;;20.63;44.16;99573.25;4975072;28;45413;-72
2023/11/27 13:57:09;;;;;;;;;3.33;2.33;;;;;20.57;44.22;99565.34;4975097;28;45418;-72
2023/11/27 13:59:38;;;;;;;;;2.67;2.67;;;;;20.63;44.39;99572.47;4975219;28;45385;-72
2023/11/27 14:02:11;;;;;;;;;2.67;2.67;;;;;20.54;43.98;99553.34;4976023;28;47195;-72
2023/11/27 14:04:47;;;;;;;;;1.00;1.00;;;;;20.59;44.13;99558.00;4978497;28;45385;-72
2023/11/27 14:07:14;;;;;;;;;3.00;1.00;;;;;20.65;44.34;99561.69;4978224;28;45406;-72
2023/11/27 14:12:13;;;;;;;;;2.00;2.00;;;;;20.65;44.26;99546.63;4978328;28;45306;-72
2023/11/27 14:14:41;;;;;;;;;2.67;1.33;;;;;20.63;44.01;99544.19;4978078;28;45288;-73
2023/11/27 14:17:24;;;;;;;;;4.67;2.00;;;;;20.63;44.08;99548.69;4978535;28;45290;-72
2023/11/27 14:25:30;;;;;;;;;1.00;1.00;;;;;20.64;44.24;99539.72;4978233;28;45429;-73
2023/11/27 14:30:39;;;;;;;;;1.33;1.33;;;;;20.57;43.68;99533.63;4978069;28;45483;-72
2023/11/27 14:33:06;;;;;;;;;2.67;2.33;;;;;20.65;44.33;99549.28;4977167;28;61939;-72
2023/11/27 14:35:32;;;;;;;;;2.67;2.00;;;;;20.68;44.09;99548.06;4977857;28;45513;-72
2023/11/27 14:37:58;;;;;;;;;2.00;2.00;;;;;20.66;44.13;99536.88;4978113;28;45456;-72
2023/11/27 14:40:23;;;;;;;;;3.33;2.00;;;;;20.67;43.76;99535.84;4977849;28;45324;-72
2023/11/27 14:42:50;;;;;;;;;2.00;1.00;;;;;20.65;44.19;99527.31;4977908;28;45816;-72
2023/11/27 14:45:15;;;;;;;;;1.00;1.00;;;;;20.68;44.22;99524.28;4977945;28;45381;-72
2023/11/27 14:47:45;;;;;;;;;2.33;2.00;;;;;20.63;43.66;99520.41;4977681;28;45379;-72
2023/11/27 14:50:16;;;;;;;;;1.33;1.33;;;;;20.68;43.83;99533.03;4977732;28;45443;-71
2023/11/27 14:52:44;;;;;;;;;2.00;2.00;;;;;20.56;44.11;99506.38;4977655;28;46513;-72
2023/11/27 14:55:12;;;;;;;;;3.67;1.00;;;;;20.70;43.75;99527.53;4977550;28;45449;-71
2023/11/27 14:57:40;;;;;;;;;2.00;2.00;;;;;20.68;44.18;99527.75;4977621;28;45401;-72
2023/11/27 15:00:19;;;;;;;;;2.67;2.00;;;;;20.69;43.89;99531.16;4977661;28;45349;-72
2023/11/27 15:02:45;;;;;;;;;2.67;1.00;;;;;20.64;44.37;99523.84;4977351;28;46337;-72
2023/11/27 15:05:13;;;;;;;;;1.67;1.67;;;;;20.68;43.79;99538.31;4977073;28;45535;-72
2023/11/27 15:07:38;;;;;;;;;2.33;1.00;;;;;20.48;43.85;99507.38;4977650;28;45356;-73
2023/11/27 15:10:06;;;;;;;;;2.00;2.00;;;;;20.69;44.18;99541.75;4977591;28;45318;-72
2023/11/27 15:12:37;;;;;;;;;3.00;2.00;;;;;20.64;44.21;99526.50;4976996;28;46274;-72
2023/11/27 15:15:06;;;;;;;;;4.00;2.33;;;;;20.59;44.17;99518.38;4976609;28;45415;-72
2023/11/27 15:17:32;;;;;;;;;1.00;1.00;;;;;20.68;44.28;99532.22;4977668;28;45356;-72
2023/11/27 15:19:58;;;;;;;;;3.00;1.00;;;;;20.62;44.13;99525.91;4977192;28;45463;-72
2023/11/27 15:22:26;;;;;;;;;2.00;1.00;;;;;20.68;43.88;99521.63;4977510;28;45435;-72
2023/11/27 15:24:56;;;;;;;;;1.00;1.00;;;;;20.60;44.28;99512.91;4977293;28;45338;-72
2023/11/27 15:27:25;;;;;;;;;1.00;1.00;;;;;20.68;44.19;99521.63;4977205;28;45337;-71
2023/11/27 15:29:51;;;;;;;;;1.67;1.67;;;;;20.66;44.02;99524.47;4977232;28;45281;-72
2023/11/27 15:32:20;;;;;;;;;2.67;2.33;;;;;20.68;43.87;99524.28;4977083;28;45280;-71
2023/11/27 15:34:45;;;;;;;;;2.00;2.00;;;;;20.68;43.98;99525.09;4976832;28;45383;-72
2023/11/27 15:37:10;;;;;;;;;2.67;2.67;;;;;20.61;44.04;99514.50;4977292;28;45428;-72
2023/11/27 15:39:36;;;;;;;;;1.00;1.00;;;;;20.67;44.14;99514.72;4976962;28;49658;-72
2023/11/27 15:42:06;;;;;;;;;1.67;1.67;;;;;20.68;44.20;99521.63;4976605;28;55107;-72
2023/11/27 15:44:32;;;;;;;;;1.67;0.33;;;;;20.62;43.92;99529.38;4977137;28;45396;-72
2023/11/27 15:46:58;;;;;;;;;1.33;1.33;;;;;20.68;44.07;99529.56;4977161;28;45421;-71
2023/11/27 15:49:24;;;;;;;;;1.33;1.33;;;;;20.58;43.86;99516.75;4976454;28;45500;-72
2023/11/27 15:51:49;;;;;;;;;3.00;2.00;;;;;20.67;43.99;99527.94;4976389;28;54654;-72
2023/11/27 15:54:16;;;;;;;;;1.00;1.00;;;;;20.67;44.39;99531.38;4977052;28;45300;-72
2023/11/27 15:56:41;;;;;;;;;1.00;1.00;;;;;20.37;44.22;99479.75;4976835;28;45469;-72
2023/11/27 15:59:09;;;;;;;;;4.67;2.00;;;;;20.56;44.05;99505.56;4976887;28;45304;-72
2023/11/27 16:01:34;;;;;;;;;1.67;1.67;;;;;20.63;43.92;99522.25;4976482;28;46406;-72
2023/11/27 16:04:00;;;;;;;;;2.33;2.00;;;;;20.59;43.97;99511.25;4976476;28;45295;-72
2023/11/27 16:06:26;;;;;;;;;1.00;1.00;;;;;20.61;44.33;99514.50;4976581;28;45675;-72
2023/11/27 16:08:51;;;;;;;;;1.00;1.00;;;;;20.65;43.83;99519.41;4976942;28;45354;-72
2023/11/27 16:11:22;;;;;;;;;1.67;0.33;;;;;20.69;44.10;99524.06;4976390;28;45477;-72
2023/11/27 16:13:47;;;;;;;;;1.33;1.33;;;;;20.69;43.70;99518.78;4976535;28;45408;-72
2023/11/27 16:16:12;;;;;;;;;3.00;1.33;;;;;20.61;43.99;99505.75;4976738;28;45758;-72
2023/11/27 16:18:38;;;;;;;;;3.33;2.33;;;;;20.70;43.97;99519.59;4991485;28;45594;-72
2023/11/27 16:21:08;;;;;;;;;6.00;2.00;;;;;20.70;43.73;99524.88;4976513;28;45954;-72
2023/11/27 16:23:33;;;;;;;;;0.67;0.67;;;;;20.59;44.14;99508.63;4976352;28;45392;-72
2023/11/27 16:25:59;;;;;;;;;2.00;0.67;;;;;20.58;43.82;99517.56;4976001;28;45361;-72
2023/11/27 16:28:24;;;;;;;;;1.00;1.00;;;;;20.62;43.81;99516.16;4976449;28;45283;-72
2023/11/27 16:30:50;;;;;;;;;3.33;1.00;;;;;20.68;43.94;99527.75;4976205;28;49275;-71
2023/11/27 16:33:15;;;;;;;;;1.67;1.67;;;;;20.54;44.21;99511.06;4976205;28;45344;-72
2023/11/27 16:35:40;;;;;;;;;1.00;0.00;;;;;20.63;44.27;99525.69;4976536;28;45372;-72
2023/11/27 16:38:06;;;;;;;;;1.00;1.00;;;;;20.67;43.93;99520.81;4976639;28;45250;-72
2023/11/27 16:40:35;;;;;;;;;2.00;2.00;;;;;20.67;44.19;99520.81;4975923;28;46934;-72
2023/11/27 16:43:01;;;;;;;;;2.67;1.00;;;;;20.67;43.90;99520.81;4976126;28;45298;-72
2023/11/27 16:45:27;;;;;;;;;2.00;2.00;;;;;20.67;43.96;99514.72;4976372;28;45328;-72
2023/11/27 16:47:59;;;;;;;;;1.00;1.00;;;;;20.67;44.38;99520.00;4975866;28;45340;-72
2023/11/27 16:50:26;;;;;;;;;0.33;0.00;;;;;20.55;43.97;99491.56;4976038;28;45366;-72
2023/11/27 16:52:54;;;;;;;;;2.00;2.00;;;;;20.57;43.96;99500.09;4975957;28;45326;-72
2023/11/27 16:55:23;;;;;;;;;1.67;1.67;;;;;20.63;44.18;99507.19;4975845;28;45349;-72
2023/11/27 16:57:53;;;;;;;;;1.00;1.00;;;;;20.65;44.22;99506.19;4975637;28;45469;-72
2023/11/27 17:00:23;;;;;;;;;1.00;1.00;;;;;20.57;44.25;99492.16;4975575;28;47266;-72
2023/11/27 17:02:53;;;;;;;;;1.00;1.00;;;;;20.59;43.93;99505.16;4975888;28;45394;-73
2023/11/27 17:05:18;;;;;;;;;0.00;0.00;;;;;20.68;44.04;99511.06;4975707;28;45456;-73
2023/11/27 17:07:45;;;;;;;;;1.33;1.33;;;;;20.67;44.27;99506.78;4975781;28;45325;-73
2023/11/27 17:10:15;;;;;;;;;1.33;1.33;;;;;20.60;43.71;99494.41;4975942;28;46987;-73
2023/11/27 17:12:45;;;;;;;;;1.33;1.00;;;;;20.60;44.28;99497.03;4975379;28;45250;-73
2023/11/27 17:15:13;;;;;;;;;1.00;1.00;;;;;20.66;43.88;99503.31;4975669;28;45377;-73
2023/11/27 17:17:45;;;;;;;;;1.00;1.00;;;;;20.61;44.25;99497.84;4975777;28;45500;-73
2023/11/27 17:20:11;;;;;;;;;3.67;2.33;;;;;20.66;44.22;99507.81;4975553;28;45413;-73
2023/11/27 17:22:43;;;;;;;;;1.67;1.00;;;;;20.63;44.34;99501.91;4975544;28;45324;-73
2023/11/27 17:25:09;;;;;;;;;2.00;0.00;;;;;20.66;43.74;99505.19;4975806;28;45352;-72
2023/11/27 17:27:36;;;;;;;;;1.33;1.33;;;;;20.65;43.78;99508.81;4975739;28;45421;-72
2023/11/27 17:30:03;;;;;;;;;1.00;1.00;;;;;20.64;43.94;99500.06;4975449;28;47237;-72
2023/11/27 17:32:29;;;;;;;;;3.33;2.00;;;;;20.65;44.03;99509.66;4975545;28;45397;-72
2023/11/27 17:35:01;;;;;;;;;0.00;0.00;;;;;20.62;44.34;99502.13;4975941;28;45471;-73
2023/11/27 17:37:27;;;;;;;;;2.00;0.00;;;;;20.58;44.18;99496.41;4977692;28;45316;-72
2023/11/27 17:39:52;;;;;;;;;1.67;1.67;;;;;20.63;44.09;99501.91;4978123;28;45978;-73
2023/11/27 17:42:17;;;;;;;;;2.00;2.00;;;;;20.63;44.08;99506.41;4978960;28;50464;-72
2023/11/27 17:44:43;;;;;;;;;1.00;1.00;;;;;20.60;44.14;99498.88;4978432;28;54618;-73
2023/11/27 17:47:09;;;;;;;;;1.67;1.67;;;;;20.65;43.85;99506.19;4979147;28;45388;-72
2023/11/27 17:49:35;;;;;;;;;3.33;1.00;;;;;20.65;44.06;99509.66;4979000;28;45948;-72
2023/11/27 17:52:00;;;;;;;;;0.33;0.33;;;;;20.62;44.13;99504.75;4978945;28;45314;-72
2023/11/27 17:54:25;;;;;;;;;3.00;2.00;;;;;20.65;43.86;99511.47;4979109;28;45323;-73
2023/11/27 17:56:51;;;;;;;;;2.00;1.00;;;;;20.53;44.24;99498.88;4978455;28;45155;-72
2023/11/27 17:59:17;;;;;;;;;1.00;1.00;;;;;20.63;43.91;99515.13;4977920;28;46405;-72
2023/11/27 18:01:43;;;;;;;;;2.33;2.00;;;;;20.57;43.91;99505.38;4977625;28;45444;-73
2023/11/27 18:04:09;;;;;;;;;1.00;1.00;;;;;20.64;44.42;99521.22;4978566;28;45384;-74
2023/11/27 18:06:40;;;;;;;;;2.00;2.00;;;;;20.50;43.86;99530.97;4972153;28;45484;-72
2023/11/27 18:09:05;;;;;;;;;1.00;1.00;;;;;20.63;44.26;99567.97;4977175;28;47075;-73
2023/11/27 18:11:31;;;;;;;;;0.33;0.33;;;;;20.64;43.75;99566.16;4977582;28;45469;-73
2023/11/27 18:13:56;;;;;;;;;1.00;1.00;;;;;20.65;44.14;99569.59;4977746;28;45461;-73
2023/11/27 18:16:22;;;;;;;;;1.33;1.33;;;;;20.65;44.22;99565.16;4976222;28;45325;-73
2023/11/27 18:18:47;;;;;;;;;1.33;1.00;;;;;20.65;44.15;99556.41;4977970;28;45979;-73
2023/11/27 18:21:12;;;;;;;;;0.00;0.00;;;;;20.60;43.71;99554.38;4977204;28;45887;-73
2023/11/27 18:23:38;;;;;;;;;1.00;1.00;;;;;20.56;44.13;99547.84;4978456;28;45404;-73
2023/11/27 18:26:04;;;;;;;;;1.00;1.00;;;;;20.64;44.08;99568.78;4977046;28;45600;-73
2023/11/27 18:28:32;;;;;;;;;1.33;1.33;;;;;20.54;43.88;99553.34;4977353;28;46224;-73
2023/11/27 18:30:58;;;;;;;;;1.00;1.00;;;;;20.63;44.03;99572.47;4977121;28;45389;-73
2023/11/27 18:33:23;;;;;;;;;2.00;2.00;;;;;20.55;43.98;99568.19;4977901;28;45302;-73
2023/11/27 18:35:49;;;;;;;;;1.00;1.00;;;;;20.62;43.99;99579.56;4977395;28;45481;-73
2023/11/27 18:38:14;;;;;;;;;1.00;1.00;;;;;20.62;44.03;99584.03;4977755;28;46111;-73
2023/11/27 18:40:40;;;;;;;;;3.33;1.00;;;;;20.62;43.92;99586.69;4976937;28;45630;-73
2023/11/27 18:43:05;;;;;;;;;1.00;1.00;;;;;20.60;43.96;99580.78;4977274;28;45275;-73
2023/11/27 18:45:31;;;;;;;;;1.67;1.67;;;;;20.57;44.07;99589.94;4977127;28;45354;-73
2023/11/27 18:47:56;;;;;;;;;1.00;1.00;;;;;20.60;43.74;99594.81;4977069;28;45338;-73
2023/11/27 18:50:22;;;;;;;;;1.00;1.00;;;;;20.61;43.97;99595.63;4976739;28;45366;-73
2023/11/27 18:52:48;;;;;;;;;2.00;1.33;;;;;20.60;44.20;99600.09;4977495;28;45698;-73
2023/11/27 18:55:14;;;;;;;;;0.00;0.00;;;;;20.59;43.70;99601.09;4976745;28;45500;-73
2023/11/27 18:57:39;;;;;;;;;2.00;1.00;;;;;20.58;43.72;99611.91;4976742;28;45499;-72
2023/11/27 19:00:05;;;;;;;;;1.00;1.00;;;;;20.62;43.86;99626.31;4976536;28;45472;-72
2023/11/27 19:02:32;;;;;;;;;1.00;1.00;;;;;20.61;43.88;99622.03;4976923;28;45326;-73
2023/11/27 19:04:57;;;;;;;;;0.67;0.00;;;;;20.55;43.82;99625.50;4976122;28;45378;-72
2023/11/27 19:07:23;;;;;;;;;1.00;1.00;;;;;20.62;44.05;99636.91;4976673;28;45298;-73
2023/11/27 19:09:48;;;;;;;;;0.67;0.67;;;;;20.57;43.81;99634.03;4976876;28;45449;-73
2023/11/27 19:12:14;;;;;;;;;2.00;1.00;;;;;20.37;43.96;99614.50;4976992;28;45392;-73
2023/11/27 19:14:40;;;;;;;;;0.00;0.00;;;;;20.62;43.71;99650.09;4977106;28;45620;-73
2023/11/27 19:17:05;;;;;;;;;0.00;0.00;;;;;20.60;44.11;99652.13;4976427;28;45340;-73
2023/11/27 19:19:30;;;;;;;;;1.33;1.00;;;;;20.61;43.68;99665.13;4976872;28;45341;-73
2023/11/27 19:21:56;;;;;;;;;0.67;0.00;;;;;20.62;43.77;99668.59;4976654;28;45894;-73
2023/11/27 19:24:21;;;;;;;;;0.00;0.00;;;;;20.57;43.82;99663.09;4977190;28;45507;-73
2023/11/27 19:26:48;;;;;;;;;1.67;1.00;;;;;20.40;43.74;99644.97;4975914;28;46397;-73
2023/11/27 19:29:14;;;;;;;;;1.00;1.00;;;;;20.60;43.72;99681.22;4976835;28;45335;-72
2023/11/27 19:31:39;;;;;;;;;0.00;0.00;;;;;20.62;43.72;99687.94;4976283;28;45357;-73
2023/11/27 19:34:06;;;;;;;;;1.00;1.00;;;;;20.39;43.29;99657.38;4977026;28;45384;-73
2023/11/27 19:36:31;;;;;;;;;1.00;1.00;;;;;20.53;43.71;99688.31;4976169;28;46134;-73
2023/11/27 19:38:57;;;;;;;;;2.00;0.67;;;;;20.57;43.51;99700.91;4976654;28;45415;-73
2023/11/27 19:41:22;;;;;;;;;0.00;0.00;;;;;20.47;43.81;99687.25;4975815;28;45464;-73
2023/11/27 19:43:50;;;;;;;;;0.00;0.00;;;;;20.56;44.01;99712.50;4976681;28;45459;-73
2023/11/27 19:46:17;;;;;;;;;2.00;0.67;;;;;20.53;43.76;99707.63;4975817;28;46060;-73